Time;durP1;ratioP1;P1;durP2;ratioP2;P2;SDS_P1;SDS_P2;PMS_P1;PMS_P2;Temp;Humidity;BMP_temperature;BMP_pressure;BME280_temperature;BME280_humidity;BME280_pressure;Samples;Min_cycle;Max_cycle;Signal;HPM_P1;HPM_P2
2022/05/27 00:01:52;;;;;;;35.85;6.00;;;;;;;12.66;100.00;102140.50;5051893;28;20377;-75
2022/05/27 00:04:17;;;;;;;28.08;4.97;;;;;;;12.56;100.00;102136.88;5053096;28;20199;-76
2022/05/27 00:06:43;;;;;;;22.35;4.38;;;;;;;12.42;100.00;102129.94;5053289;28;20063;-76
2022/05/27 00:09:09;;;;;;;21.08;3.72;;;;;;;12.29;100.00;102126.53;5053274;28;20040;-76
2022/05/27 00:11:34;;;;;;;18.15;3.38;;;;;;;12.13;100.00;102125.03;5053384;28;20083;-76
2022/05/27 00:13:59;;;;;;;14.05;3.42;;;;;;;12.04;100.00;102120.41;5053244;28;20418;-75
2022/05/27 00:16:25;;;;;;;14.98;3.17;;;;;;;11.94;100.00;102122.94;5053309;28;20033;-75
2022/05/27 00:18:51;;;;;;;10.48;2.63;;;;;;;11.89;100.00;102124.22;5053096;28;20442;-76
2022/05/27 00:21:17;;;;;;;9.95;2.80;;;;;;;11.81;100.00;102128.31;5052866;28;20053;-76
2022/05/27 00:23:43;;;;;;;10.63;2.55;;;;;;;11.78;100.00;102133.03;5052848;28;20033;-76
2022/05/27 00:26:08;;;;;;;12.65;2.63;;;;;;;11.72;100.00;102125.47;5053351;28;20095;-75
2022/05/27 00:28:34;;;;;;;10.82;2.58;;;;;;;11.67;100.00;102122.31;5053831;28;20181;-76
2022/05/27 00:30:59;;;;;;;11.10;2.88;;;;;;;11.65;100.00;102120.59;5052921;28;20032;-77
2022/05/27 00:33:24;;;;;;;11.68;2.88;;;;;;;11.67;100.00;102120.47;5053418;28;20079;-76
2022/05/27 00:35:50;;;;;;;17.80;3.15;;;;;;;11.70;100.00;102122.91;5071090;28;20044;-73
2022/05/27 00:38:17;;;;;;;15.30;3.05;;;;;;;11.72;100.00;102122.81;5037912;28;20444;-74
2022/05/27 00:40:47;;;;;;;17.00;3.63;;;;;;;11.75;100.00;102118.09;5056780;28;20033;-74
2022/05/27 00:43:13;;;;;;;24.05;3.65;;;;;;;11.75;100.00;102112.78;5056375;28;20028;-73
2022/05/27 00:45:42;;;;;;;25.13;4.57;;;;;;;11.83;100.00;102114.84;5054795;28;20453;-73
2022/05/27 00:48:13;;;;;;;21.50;5.07;;;;;;;11.83;100.00;102110.38;5056136;28;20133;-73
2022/05/27 00:50:42;;;;;;;28.77;4.72;;;;;;;11.92;100.00;102107.97;5054697;28;20064;-73
2022/05/27 00:53:09;;;;;;;23.83;5.07;;;;;;;11.97;100.00;102103.16;5055773;28;20032;-73
2022/05/27 00:55:43;;;;;;;28.65;5.50;;;;;;;11.99;100.00;102110.09;5055817;28;20048;-73
2022/05/27 00:58:11;;;;;;;32.30;4.57;;;;;;;12.03;100.00;102110.69;5055514;28;20506;-73
2022/05/27 01:00:37;;;;;;;34.08;6.00;;;;;;;12.09;100.00;102117.38;5055662;28;20033;-73
2022/05/27 01:03:05;;;;;;;34.97;5.82;;;;;;;12.11;100.00;102115.47;5055593;28;20056;-73
2022/05/27 01:05:30;;;;;;;27.70;6.07;;;;;;;12.19;100.00;102113.03;5056236;28;20128;-73
2022/05/27 01:08:01;;;;;;;33.58;5.88;;;;;;;12.24;100.00;102113.56;5054996;28;20124;-72
2022/05/27 01:10:30;;;;;;;34.35;6.45;;;;;;;12.28;100.00;102111.47;5053690;28;20377;-72
2022/05/27 01:13:09;;;;;;;38.20;6.50;;;;;;;12.33;100.00;102112.81;5055392;28;20033;-72
2022/05/27 01:15:56;;;;;;;31.77;5.32;;;;;;;12.38;100.00;102114.28;5055396;28;20032;-72
2022/05/27 01:21:56;;;;;;;30.08;5.82;;;;;;;12.44;100.00;102111.13;5055860;28;20047;-73
2022/05/27 01:24:32;;;;;;;29.55;4.88;;;;;;;12.46;100.00;102117.19;5055258;28;20082;-73
2022/05/27 01:26:58;;;;;;;31.40;5.05;;;;;;;12.44;100.00;102108.47;5054903;28;20058;-72
2022/05/27 01:30:06;;;;;;;25.73;4.40;;;;;;;12.41;100.00;102112.22;5055201;28;20107;-72
2022/05/27 01:32:42;;;;;;;33.13;4.97;;;;;;;12.38;100.00;102109.78;5032878;28;20049;-72
2022/05/27 01:35:18;;;;;;;30.30;6.15;;;;;;;12.34;100.00;102106.50;5051804;28;20427;-72
2022/05/27 01:37:52;;;;;;;28.83;5.00;;;;;;;12.34;100.00;102109.16;5054468;28;20086;-72
2022/05/27 01:40:27;;;;;;;27.27;5.15;;;;;;;12.39;100.00;102100.81;5055595;28;20126;-72
2022/05/27 01:43:12;;;;;;;29.35;4.78;;;;;;;12.39;100.00;102099.97;5054941;28;20119;-72
2022/05/27 01:45:37;;;;;;;27.20;5.32;;;;;;;12.38;100.00;102099.13;5055224;28;20112;-72
2022/05/27 01:48:20;;;;;;;27.98;4.55;;;;;;;12.39;100.00;102092.81;5053795;28;20067;-72
2022/05/27 01:51:28;;;;;;;21.05;4.35;;;;;;;12.38;100.00;102101.78;5055033;28;20033;-72
2022/05/27 01:54:03;;;;;;;24.17;4.97;;;;;;;12.39;100.00;102110.63;5053187;28;20049;-72
2022/05/27 01:56:51;;;;;;;17.02;3.90;;;;;;;12.40;100.00;102107.00;5054760;28;20025;-72
2022/05/27 01:59:24;;;;;;;23.05;4.60;;;;;;;12.38;100.00;102106.28;5053995;28;20079;-72
2022/05/27 02:01:57;;;;;;;29.45;5.10;;;;;;;12.33;100.00;102101.28;5053755;28;20120;-72
2022/05/27 02:04:30;;;;;;;25.65;5.53;;;;;;;12.26;100.00;102089.41;5054506;28;20024;-72
2022/05/27 02:07:11;;;;;;;33.53;5.18;;;;;;;12.20;100.00;102093.41;5053523;28;20029;-73
2022/05/27 02:09:50;;;;;;;24.17;4.35;;;;;;;12.15;100.00;102084.88;5054974;28;20436;-72
2022/05/27 02:12:42;;;;;;;30.70;4.85;;;;;;;12.14;100.00;102091.22;5054750;28;20025;-72
2022/05/27 02:15:13;;;;;;;;;;;;;;;12.13;100.00;102092.16;5055188;28;20025;-72
2022/05/27 02:17:49;;;;;;;28.17;4.70;;;;;;;12.10;100.00;102100.41;5054895;28;19913;-72
2022/05/27 02:20:24;;;;;;;21.60;3.88;;;;;;;12.08;100.00;102105.88;5056285;28;20111;-72
2022/05/27 02:22:56;;;;;;;21.73;3.85;;;;;;;12.09;100.00;102104.03;5056432;28;20025;-74
2022/05/27 02:25:36;;;;;;;24.83;4.72;;;;;;;12.04;100.00;102095.56;5055490;28;20056;-73
2022/05/27 02:28:10;;;;;;;28.58;5.10;;;;;;;12.00;100.00;102092.25;5054671;28;20465;-74
2022/05/27 02:30:41;;;;;;;19.27;4.63;;;;;;;11.96;100.00;102089.00;5054729;28;20037;-73
2022/05/27 02:36:00;;;;;;;23.00;4.07;;;;;;;11.93;100.00;102097.22;5055446;28;20431;-76
2022/05/27 02:38:27;;;;;;;20.20;4.25;;;;;;;11.94;100.00;102090.06;5055139;28;20449;-72
2022/05/27 02:41:17;;;;;;;23.25;4.07;;;;;;;11.97;100.00;102098.69;5054296;28;20056;-74
2022/05/27 02:43:56;;;;;;;24.52;4.72;;;;;;;11.99;100.00;102099.41;5055140;28;20065;-73
2022/05/27 02:47:04;;;;;;;30.73;4.63;;;;;;;12.03;100.00;102096.50;5055318;28;20029;-73
2022/05/27 02:49:34;;;;;;;18.45;4.07;;;;;;;12.01;100.00;102095.78;5015986;28;20083;-73
2022/05/27 02:52:20;;;;;;;23.48;4.45;;;;;;;12.03;100.00;102100.03;5049607;28;20041;-73
2022/05/27 02:55:02;;;;;;;18.42;4.47;;;;;;;12.02;100.00;102105.47;5053780;28;20028;-73
2022/05/27 02:57:37;;;;;;;22.48;4.57;;;;;;;12.02;100.00;102109.00;5053637;28;20040;-73
2022/05/27 03:00:14;;;;;;;23.67;5.50;;;;;;;12.09;100.00;102109.38;5053592;28;20036;-72
2022/05/27 03:02:40;;;;;;;19.17;4.05;;;;;;;12.10;100.00;102103.91;5053195;28;20406;-72
2022/05/27 03:05:06;;;;;;;16.95;3.80;;;;;;;12.12;100.00;102096.66;5053878;28;20057;-73
2022/05/27 03:08:13;;;;;;;18.13;4.28;;;;;;;12.13;100.00;102100.19;5054149;28;20029;-73
2022/05/27 03:10:56;;;;;;;22.17;6.28;;;;;;;12.09;100.00;102099.56;5052977;28;20108;-73
2022/05/27 03:13:50;;;;;;;19.73;4.22;;;;;;;12.08;100.00;102099.69;5053940;28;20029;-73
2022/05/27 03:16:15;;;;;;;18.30;3.90;;;;;;;12.09;100.00;102101.38;5053335;28;20090;-72
2022/05/27 03:19:05;;;;;;;21.40;3.90;;;;;;;12.07;100.00;102100.66;5053355;28;20029;-72
2022/05/27 03:21:40;;;;;;;22.08;3.92;;;;;;;12.04;100.00;102103.56;5054049;28;20033;-73
2022/05/27 03:24:41;;;;;;;12.57;3.38;;;;;;;12.03;100.00;102101.84;5054236;28;20522;-72
2022/05/27 03:27:12;;;;;;;24.55;4.32;;;;;;;11.97;100.00;102106.69;5054188;28;20065;-73
2022/05/27 03:29:56;;;;;;;;;;;;;;;11.97;100.00;102104.03;5054018;28;20107;-74
2022/05/27 03:32:43;;;;;;;14.38;3.72;;;;;;;11.97;100.00;102101.38;5053606;28;19935;-74
2022/05/27 03:35:39;;;;;;;16.15;3.65;;;;;;;11.99;100.00;102103.91;5057536;28;20028;-74
2022/05/27 03:38:15;;;;;;;19.52;3.55;;;;;;;11.97;100.00;102104.03;5055723;28;20025;-75
2022/05/27 03:41:03;;;;;;;9.70;2.85;;;;;;;11.95;100.00;102100.63;5056083;28;20044;-73
2022/05/27 03:43:29;;;;;;;11.15;3.17;;;;;;;11.97;100.00;102105.81;5057667;28;20029;-73
2022/05/27 03:45:58;;;;;;;15.40;3.78;;;;;;;11.96;100.00;102107.66;5057074;28;20469;-73
2022/05/27 03:48:26;;;;;;;13.52;3.08;;;;;;;11.95;100.00;102111.28;5057526;28;20077;-73
2022/05/27 03:50:55;;;;;;;15.73;3.00;;;;;;;11.95;100.00;102121.94;5056945;28;20037;-74
2022/05/27 03:53:21;;;;;;;13.43;3.08;;;;;;;11.93;100.00;102113.22;5056917;28;20069;-74
2022/05/27 03:55:46;;;;;;;11.52;2.78;;;;;;;11.90;100.00;102108.09;5056951;28;20551;-74
2022/05/27 03:58:17;;;;;;;11.13;2.80;;;;;;;11.89;100.00;102106.38;5056499;28;20481;-74
2022/05/27 04:00:43;;;;;;;12.90;3.07;;;;;;;11.89;100.00;102108.22;5056549;28;20053;-73
2022/05/27 04:03:10;;;;;;;11.18;2.90;;;;;;;11.88;100.00;102115.34;5055411;28;20037;-74
2022/05/27 04:05:38;;;;;;;10.57;2.67;;;;;;;11.88;100.00;102120.69;5056739;28;20037;-74
2022/05/27 04:08:03;;;;;;;11.30;2.85;;;;;;;11.88;100.00;102117.16;5056704;28;20029;-73
2022/05/27 04:10:29;;;;;;;12.02;3.03;;;;;;;11.85;100.00;102115.56;5056861;28;20039;-72
2022/05/27 04:12:54;;;;;;;10.55;2.83;;;;;;;11.84;100.00;102116.56;5056601;28;20480;-72
2022/05/27 04:15:19;;;;;;;13.25;2.72;;;;;;;11.82;100.00;102116.69;5056582;28;20424;-72
2022/05/27 04:17:45;;;;;;;10.40;2.85;;;;;;;11.80;100.00;102123.09;5055320;28;20439;-72
2022/05/27 04:20:14;;;;;;;13.68;3.50;;;;;;;11.77;100.00;102123.31;5056839;28;20029;-74
2022/05/27 04:22:40;;;;;;;13.05;2.50;;;;;;;11.73;100.00;102120.03;5056167;28;20112;-72
2022/05/27 04:25:06;;;;;;;7.38;2.30;;;;;;;11.72;100.00;102120.13;5056286;28;20033;-72
2022/05/27 04:27:32;;;;;;;10.65;3.08;;;;;;;11.71;100.00;102123.78;5056119;28;20037;-72
2022/05/27 04:29:57;;;;;;;13.15;2.67;;;;;;;11.75;100.00;102122.59;5056372;28;20056;-72
2022/05/27 04:32:25;;;;;;;9.85;3.20;;;;;;;11.80;100.00;102120.44;5056175;28;20095;-72
2022/05/27 04:34:52;;;;;;;18.65;3.35;;;;;;;11.91;100.00;102123.16;5056194;28;20064;-72
2022/05/27 04:37:18;;;;;;;10.63;2.70;;;;;;;11.97;100.00;102128.03;5055765;28;20135;-73
2022/05/27 04:39:44;;;;;;;9.75;2.67;;;;;;;12.03;100.00;102129.38;5056191;28;20052;-73
2022/05/27 04:42:09;;;;;;;9.63;2.67;;;;;;;12.07;100.00;102122.84;5056089;28;20083;-73
2022/05/27 04:44:35;;;;;;;16.60;3.25;;;;;;;12.13;100.00;102137.53;5037887;28;20412;-72
2022/05/27 04:47:00;;;;;;;13.73;3.00;;;;;;;12.17;100.00;102137.16;5056087;28;20116;-72
2022/05/27 04:52:10;;;;;;;16.17;2.63;;;;;;;12.32;100.00;102140.47;5055972;28;20083;-72
2022/05/27 04:54:35;;;;;;;14.05;3.08;;;;;;;12.39;100.00;102146.19;5056118;28;20061;-73
2022/05/27 04:57:01;;;;;;;10.57;2.28;;;;;;;12.49;100.00;102154.31;5055736;28;20465;-73
2022/05/27 04:59:26;;;;;;;12.55;2.88;;;;;;;12.61;100.00;102148.03;5055760;28;20029;-72
2022/05/27 05:01:52;;;;;;;13.82;2.95;;;;;;;12.70;99.87;102147.31;5055603;28;20079;-73
2022/05/27 05:04:18;;;;;;;11.38;3.10;;;;;;;12.77;96.78;102149.50;5055612;28;20500;-73
2022/05/27 05:06:44;;;;;;;12.60;2.92;;;;;;;12.82;95.62;102142.84;5055453;28;20029;-72
2022/05/27 05:09:10;;;;;;;10.23;2.60;;;;;;;12.84;95.63;102150.72;5055684;28;20118;-73
2022/05/27 05:11:35;;;;;;;10.13;2.60;;;;;;;12.79;94.65;102152.88;5055219;28;20476;-73
2022/05/27 05:14:01;;;;;;;15.30;2.80;;;;;;;12.76;94.22;102155.81;5055483;28;20052;-73
2022/05/27 05:16:26;;;;;;;12.10;2.60;;;;;;;12.70;94.50;102154.47;5055613;28;20115;-73
2022/05/27 05:18:51;;;;;;;18.77;3.55;;;;;;;12.63;94.92;102161.25;5054276;28;20108;-73
2022/05/27 05:21:17;;;;;;;14.00;2.92;;;;;;;12.59;94.77;102165.16;5055314;28;20457;-72
2022/05/27 05:23:43;;;;;;;11.80;2.83;;;;;;;12.52;95.17;102160.28;5055277;28;20115;-73
2022/05/27 05:26:08;;;;;;;12.82;2.90;;;;;;;12.45;96.07;102168.88;5055257;28;20044;-71
2022/05/27 05:28:34;;;;;;;11.18;2.42;;;;;;;12.44;95.53;102170.72;5055115;28;20037;-71
2022/05/27 05:30:59;;;;;;;7.50;2.45;;;;;;;12.48;94.95;102181.97;5055182;28;20036;-72
2022/05/27 05:33:25;;;;;;;7.75;2.50;;;;;;;12.52;94.64;102170.97;5054727;28;20043;-72
2022/05/27 05:35:50;;;;;;;15.25;2.72;;;;;;;12.58;93.81;102176.78;5055137;28;20029;-72
2022/05/27 05:38:17;;;;;;;7.97;2.50;;;;;;;12.66;93.96;102183.25;5054981;28;20071;-72
2022/05/27 05:40:43;;;;;;;7.47;2.08;;;;;;;12.76;93.94;102180.69;5054951;28;20053;-73
2022/05/27 05:43:09;;;;;;;10.90;2.70;;;;;;;12.90;92.30;102187.63;5053503;28;20362;-73
2022/05/27 05:45:34;;;;;;;12.38;2.75;;;;;;;13.01;91.78;102184.94;5054759;28;20041;-72
2022/05/27 05:48:00;;;;;;;9.48;2.45;;;;;;;13.11;90.36;102190.41;5054558;28;20055;-72
2022/05/27 05:50:27;;;;;;;9.80;2.50;;;;;;;13.21;88.90;102191.38;5053720;28;20473;-73
2022/05/27 05:52:53;;;;;;;9.95;2.40;;;;;;;13.28;88.08;102186.38;5054704;28;20493;-72
2022/05/27 05:55:19;;;;;;;12.07;2.97;;;;;;;13.33;87.53;102186.84;5054159;28;20033;-74
2022/05/27 05:57:47;;;;;;;14.18;2.88;;;;;;;13.32;88.09;102187.81;5055013;28;20041;-71
2022/05/27 06:00:20;;;;;;;9.10;2.40;;;;;;;13.38;88.24;102191.88;5054366;28;20029;-71
2022/05/27 06:02:45;;;;;;;16.92;2.45;;;;;;;13.41;88.68;102202.31;5054782;28;20369;-72
2022/05/27 06:05:10;;;;;;;6.15;2.30;;;;;;;13.45;87.78;102202.88;5054285;28;20036;-72
2022/05/27 06:07:36;;;;;;;8.02;2.67;;;;;;;13.44;87.72;102204.72;5054452;28;20090;-72
2022/05/27 06:10:02;;;;;;;15.10;3.20;;;;;;;13.48;88.51;102206.19;5053175;28;20064;-72
2022/05/27 06:12:32;;;;;;;13.15;2.47;;;;;;;13.48;86.98;102205.31;5054375;28;20040;-72
2022/05/27 06:15:00;;;;;;;10.55;2.45;;;;;;;13.54;86.78;102200.34;5055020;28;20078;-71
2022/05/27 06:17:27;;;;;;;12.45;2.60;;;;;;;13.60;86.20;102212.34;5052898;28;20443;-71
2022/05/27 06:19:52;;;;;;;10.27;2.58;;;;;;;13.58;84.34;102209.81;5054129;28;20083;-72
2022/05/27 06:22:18;;;;;;;13.20;2.40;;;;;;;13.56;83.01;102213.56;5054701;28;20037;-72
2022/05/27 06:24:44;;;;;;;15.18;3.10;;;;;;;13.63;80.83;102213.91;5054111;28;20025;-72
2022/05/27 06:27:09;;;;;;;5.88;2.33;;;;;;;13.66;78.96;102209.19;5054550;28;20179;-72
2022/05/27 06:35:03;;;;;;;17.55;2.63;;;;;;;13.67;66.57;102224.22;5054364;28;20102;-72
2022/05/27 06:37:29;;;;;;;12.77;2.47;;;;;;;13.68;65.62;102225.94;5053868;28;20423;-72
2022/05/27 06:39:54;;;;;;;9.63;2.20;;;;;;;13.72;64.04;102226.56;5053508;28;20493;-72
2022/05/27 06:42:20;;;;;;;13.63;2.40;;;;;;;13.77;64.13;102234.19;5052732;28;20434;-72
2022/05/27 06:44:46;;;;;;;12.52;3.05;;;;;;;13.85;65.26;102239.75;5054564;28;20108;-72
2022/05/27 06:47:11;;;;;;;10.38;2.30;;;;;;;13.86;64.27;102239.63;5054306;28;20052;-72
2022/05/27 06:49:38;;;;;;;11.35;2.58;;;;;;;13.89;65.76;102236.69;5053928;28;20145;-72
2022/05/27 06:52:04;;;;;;;10.63;2.35;;;;;;;13.97;63.59;102244.06;5053808;28;20473;-73
2022/05/27 06:54:30;;;;;;;14.65;3.00;;;;;;;13.99;61.95;102251.97;5053709;28;20071;-74
2022/05/27 06:56:56;;;;;;;15.82;3.00;;;;;;;13.98;61.95;102251.13;5054005;28;20036;-74
2022/05/27 06:59:23;;;;;;;14.05;2.63;;;;;;;13.98;62.28;102245.78;5054060;28;20028;-74
2022/05/27 07:01:48;;;;;;;10.40;2.53;;;;;;;13.96;60.74;102253.09;5054506;28;20033;-72
2022/05/27 07:04:14;;;;;;;14.40;2.72;;;;;;;13.97;59.32;102246.75;5053101;28;20116;-73
2022/05/27 07:06:46;;;;;;;10.55;2.88;;;;;;;14.10;59.20;102239.41;5052607;28;20061;-72
2022/05/27 07:09:12;;;;;;;;;;;;;;;14.22;58.78;102242.88;5054425;28;20028;-73
2022/05/27 07:11:38;;;;;;;9.48;2.33;;;;;;;14.28;57.68;102250.38;5053640;28;19939;-73
2022/05/27 07:14:04;;;;;;;12.65;2.72;;;;;;;14.39;56.98;102246.84;5036479;28;20373;-73
2022/05/27 07:16:30;;;;;;;15.45;2.90;;;;;;;14.56;57.84;102257.94;5053571;28;20033;-73
2022/05/27 07:18:56;;;;;;;15.63;2.95;;;;;;;14.80;57.57;102255.84;5053899;28;20044;-73
2022/05/27 07:21:22;;;;;;;16.75;3.28;;;;;;;14.93;56.41;102250.28;5053281;28;20036;-73
2022/05/27 07:23:48;;;;;;;17.02;3.00;;;;;;;15.05;57.37;102256.41;5053209;28;20036;-73
2022/05/27 07:26:13;;;;;;;13.32;2.97;;;;;;;15.25;57.12;102267.22;5052238;28;20041;-73
2022/05/27 07:28:39;;;;;;;19.60;3.00;;;;;;;15.38;58.56;102267.84;5053204;28;20068;-73
2022/05/27 07:31:05;;;;;;;16.23;3.67;;;;;;;15.45;58.93;102262.75;5053564;28;20037;-73
2022/05/27 07:33:30;;;;;;;11.10;2.45;;;;;;;15.43;58.59;102270.09;5053447;28;20037;-74
2022/05/27 07:35:56;;;;;;;12.32;3.10;;;;;;;15.53;58.87;102276.34;5053080;28;20442;-74
2022/05/27 07:38:22;;;;;;;12.88;2.95;;;;;;;15.50;59.88;102280.16;5051843;28;20373;-73
2022/05/27 07:40:48;;;;;;;9.10;2.30;;;;;;;15.59;61.39;102275.78;5053572;28;20053;-75
2022/05/27 07:43:14;;;;;;;10.80;2.15;;;;;;;15.55;63.25;102268.16;5053773;28;20462;-73
2022/05/27 07:45:41;;;;;;;9.18;2.40;;;;;;;15.49;62.03;102281.13;5054091;28;20495;-74
2022/05/27 07:48:08;;;;;;;16.27;3.00;;;;;;;15.24;59.83;102266.38;5053609;28;20391;-74
2022/05/27 07:50:34;;;;;;;12.43;2.40;;;;;;;15.28;58.15;102272.31;5053757;28;20116;-74
2022/05/27 07:52:59;;;;;;;8.23;2.78;;;;;;;15.18;58.98;102285.66;5054220;28;20500;-74
2022/05/27 07:55:25;;;;;;;9.35;2.10;;;;;;;15.36;58.18;102290.41;5056524;28;20044;-74
2022/05/27 07:57:50;;;;;;;11.00;2.63;;;;;;;15.44;54.04;102287.91;5055974;28;20079;-75
2022/05/27 08:00:23;;;;;;;16.05;3.15;;;;;;;15.13;53.03;102294.09;5057223;28;20029;-74
2022/05/27 08:02:48;;;;;;;16.08;2.80;;;;;;;15.11;54.74;102296.09;5059209;28;20068;-73
2022/05/27 08:05:18;;;;;;;11.55;2.97;;;;;;;15.06;52.23;102289.41;5054725;28;20069;-74
2022/05/27 08:07:44;;;;;;;13.20;2.63;;;;;;;15.19;54.79;102289.22;5053668;28;20035;-74
2022/05/27 08:10:12;;;;;;;13.18;3.30;;;;;;;15.24;54.93;102282.47;5051950;28;20033;-74
2022/05/27 08:12:37;;;;;;;12.23;2.47;;;;;;;15.40;55.10;102287.31;5053333;28;20052;-74
2022/05/27 08:15:04;;;;;;;20.10;2.83;;;;;;;15.46;52.92;102302.84;5052971;28;20037;-74
2022/05/27 08:17:29;;;;;;;12.60;2.85;;;;;;;15.33;52.75;102291.50;5053807;28;20044;-75
2022/05/27 08:19:54;;;;;;;14.80;2.97;;;;;;;15.55;51.96;102295.00;5055234;28;20041;-74
2022/05/27 08:22:20;;;;;;;12.30;2.88;;;;;;;15.77;52.57;102284.03;5056616;28;20119;-74
2022/05/27 08:24:45;;;;;;;13.50;2.85;;;;;;;15.80;50.85;102294.50;5056274;28;20040;-73
2022/05/27 08:27:11;;;;;;;14.60;3.00;;;;;;;15.75;51.30;102296.75;5056310;28;20029;-73
2022/05/27 08:29:36;;;;;;;16.98;3.10;;;;;;;16.08;51.87;102299.22;5056324;28;20037;-74
2022/05/27 08:32:03;;;;;;;13.68;2.80;;;;;;;16.05;51.90;102303.03;5056268;28;20428;-74
2022/05/27 08:39:58;;;;;;;18.45;3.00;;;;;;;16.91;50.65;102319.28;5055773;28;20520;-73
2022/05/27 08:42:43;;;;;;;17.13;3.00;;;;;;;17.10;48.37;102314.84;5054963;28;20037;-74
2022/05/27 08:45:19;;;;;;;12.18;2.72;;;;;;;17.58;45.50;102323.72;5056073;28;20111;-75
2022/05/27 08:47:50;;;;;;;13.43;2.80;;;;;;;17.84;46.21;102323.88;5056303;28;20036;-74
2022/05/27 08:50:32;;;;;;;12.82;3.42;;;;;;;18.61;43.40;102326.13;5056313;28;20025;-73
2022/05/27 08:53:04;;;;;;;15.25;2.85;;;;;;;18.99;42.12;102324.09;5055887;28;20025;-74
2022/05/27 09:01:14;;;;;;;22.25;5.18;;;;;;;18.43;42.98;102337.78;5056405;28;20090;-74
2022/05/27 09:03:45;;;;;;;14.68;3.63;;;;;;;18.58;45.01;102337.22;5055770;28;20029;-73
2022/05/27 09:06:13;;;;;;;12.70;2.90;;;;;;;18.74;45.66;102340.06;5055778;28;20036;-73
2022/05/27 09:08:39;;;;;;;11.73;3.08;;;;;;;19.53;42.83;102340.06;5055278;28;20366;-73
2022/05/27 09:11:42;;;;;;;16.88;3.72;;;;;;;20.60;41.10;102345.72;5055381;28;20462;-74
2022/05/27 09:14:18;;;;;;;14.95;3.22;;;;;;;21.13;38.90;102338.09;5055489;28;20032;-74
2022/05/27 09:16:59;;;;;;;13.10;3.25;;;;;;;21.30;37.31;102339.75;5054917;28;20349;-74
2022/05/27 09:19:43;;;;;;;9.52;3.03;;;;;;;21.37;37.16;102345.28;5055929;28;20056;-75
2022/05/27 09:22:29;;;;;;;13.60;3.25;;;;;;;20.93;38.53;102341.16;5055380;28;20037;-74
2022/05/27 09:25:11;;;;;;;13.32;3.55;;;;;;;20.76;38.37;102343.03;5055210;28;20057;-73
2022/05/27 09:27:51;;;;;;;12.82;2.90;;;;;;;21.50;38.45;102342.06;5055478;28;20033;-73
2022/05/27 09:30:18;;;;;;;18.83;3.65;;;;;;;21.69;37.87;102348.06;5054589;28;20123;-73
2022/05/27 09:33:00;;;;;;;17.20;3.60;;;;;;;21.17;38.12;102343.97;5053748;28;20063;-73
2022/05/27 09:35:41;;;;;;;15.38;3.38;;;;;;;19.54;41.34;102353.41;5054714;28;20065;-73
2022/05/27 09:38:10;;;;;;;16.00;3.67;;;;;;;19.20;43.37;102345.31;5055627;28;20025;-73
2022/05/27 09:40:56;;;;;;;22.75;4.75;;;;;;;18.12;44.89;102359.72;5055598;28;20084;-73
2022/05/27 09:43:55;;;;;;;18.63;3.22;;;;;;;17.49;46.40;102349.66;5053686;28;20107;-73
2022/05/27 09:46:27;;;;;;;16.73;3.55;;;;;;;17.73;45.17;102353.66;5054971;28;20115;-73
2022/05/27 09:48:56;;;;;;;15.93;3.80;;;;;;;17.66;44.29;102360.63;5054971;28;20036;-72
2022/05/27 09:51:24;;;;;;;13.60;3.22;;;;;;;17.79;42.27;102358.44;5055044;28;20053;-72
2022/05/27 09:53:53;;;;;;;12.55;3.47;;;;;;;17.86;43.90;102361.41;5054826;28;20104;-72
2022/05/27 09:56:40;;;;;;;21.10;3.22;;;;;;;17.57;46.41;102365.94;5054660;28;20029;-73
2022/05/27 09:59:25;;;;;;;19.15;3.63;;;;;;;16.91;49.67;102373.06;5055251;28;20039;-73
2022/05/27 10:01:51;;;;;;;17.60;3.88;;;;;;;16.83;50.74;102372.03;5055141;28;20020;-73
2022/05/27 10:04:17;;;;;;;21.25;4.18;;;;;;;17.60;49.04;102371.03;5054312;28;20112;-73
2022/05/27 10:06:44;;;;;;;13.93;3.40;;;;;;;19.35;42.55;102369.84;5054512;28;20083;-73
2022/05/27 10:09:29;;;;;;;11.68;2.85;;;;;;;20.44;38.20;102377.13;5053285;28;20132;-74
2022/05/27 10:11:57;;;;;;;13.98;3.25;;;;;;;19.70;38.25;102382.31;5054320;28;20491;-73
2022/05/27 10:14:24;;;;;;;16.05;4.05;;;;;;;20.17;38.07;102370.19;5054357;28;20113;-73
2022/05/27 10:17:10;;;;;;;9.90;2.50;;;;;;;20.41;37.03;102382.06;5053924;28;20033;-73
2022/05/27 10:19:47;;;;;;;16.83;3.55;;;;;;;20.38;37.51;102374.28;5054461;28;20025;-74
2022/05/27 10:22:26;;;;;;;19.55;3.47;;;;;;;20.49;36.18;102389.31;5054392;28;20028;-73
2022/05/27 10:25:13;;;;;;;13.43;3.33;;;;;;;21.04;35.63;102385.13;5054223;28;20035;-74
2022/05/27 10:27:52;;;;;;;20.17;4.30;;;;;;;20.82;36.94;102378.53;5054387;28;20032;-75
2022/05/27 10:30:24;;;;;;;16.23;3.80;;;;;;;20.32;36.79;102381.19;5054931;28;20347;-73
2022/05/27 10:32:49;;;;;;;19.30;3.53;;;;;;;19.70;38.49;102385.00;5054158;28;20033;-73
2022/05/27 10:35:20;;;;;;;16.85;3.17;;;;;;;18.87;39.30;102384.66;5052631;28;20033;-73
2022/05/27 10:37:51;;;;;;;15.48;2.85;;;;;;;19.10;40.82;102375.06;5054091;28;20036;-72
2022/05/27 10:40:31;;;;;;;17.83;3.00;;;;;;;19.55;40.07;102386.63;5054086;28;20055;-72
2022/05/27 10:43:00;;;;;;;21.98;3.60;;;;;;;19.44;39.51;102395.84;5053565;28;20550;-73
2022/05/27 10:45:38;;;;;;;11.52;2.92;;;;;;;19.95;37.77;102395.13;5053729;28;20584;-72
2022/05/27 10:48:11;;;;;;;13.18;3.45;;;;;;;20.68;37.64;102407.13;5053963;28;20044;-74
2022/05/27 10:50:44;;;;;;;14.82;2.88;;;;;;;21.07;35.25;102399.16;5053999;28;20056;-73
2022/05/27 10:53:19;;;;;;;10.35;2.25;;;;;;;20.85;33.76;102386.31;5053901;28;20025;-74
2022/05/27 10:56:07;;;;;;;11.52;3.28;;;;;;;20.75;35.31;102397.28;5053299;28;20469;-74
2022/05/27 11:02:04;;;;;;;13.45;3.30;;;;;;;20.84;35.02;102409.81;5053519;28;20089;-73
2022/05/27 11:05:02;;;;;;;18.52;4.13;;;;;;;20.66;36.10;102410.00;5054235;28;20037;-73
2022/05/27 11:07:38;;;;;;;12.68;3.20;;;;;;;20.32;36.39;102396.53;5053760;28;20025;-73
2022/05/27 11:10:24;;;;;;;12.70;3.08;;;;;;;20.76;36.49;102413.34;5053373;28;20032;-73
2022/05/27 11:16:18;;;;;;;19.45;3.30;;;;;;;20.68;37.13;102420.63;5053839;28;20089;-73
2022/05/27 11:18:59;;;;;;;12.85;3.05;;;;;;;21.11;36.67;102415.91;5053745;28;20131;-73
2022/05/27 11:21:38;;;;;;;21.65;3.97;;;;;;;21.70;36.26;102415.59;5053314;28;20068;-74
2022/05/27 11:24:12;;;;;;;15.18;3.50;;;;;;;20.89;35.37;102437.19;5053522;28;20028;-73
2022/05/27 11:26:50;;;;;;;16.42;3.38;;;;;;;19.54;37.70;102428.13;5053555;28;20029;-74
2022/05/27 11:29:44;;;;;;;11.98;2.90;;;;;;;18.29;38.13;102427.25;5053408;28;20457;-72
2022/05/27 11:32:22;;;;;;;13.40;2.50;;;;;;;18.10;40.95;102431.72;5053708;28;20492;-72
2022/05/27 11:35:10;;;;;;;13.40;2.85;;;;;;;19.11;41.01;102421.75;5053200;28;20074;-74
2022/05/27 11:37:43;;;;;;;14.35;3.08;;;;;;;19.65;37.75;102418.91;5049942;28;20091;-74
2022/05/27 11:40:53;;;;;;;10.10;2.50;;;;;;;19.36;37.11;102431.75;5054010;28;20045;-74
2022/05/27 11:43:43;;;;;;;11.15;2.65;;;;;;;18.35;38.32;102425.75;5053080;28;20036;-72
2022/05/27 11:46:23;;;;;;;16.77;2.90;;;;;;;18.04;41.47;102429.63;5052682;28;20033;-73
2022/05/27 11:49:35;;;;;;;15.43;2.83;;;;;;;18.68;38.00;102425.09;5053395;28;20029;-72
2022/05/27 11:52:00;;;;;;;;;;;;;;;19.30;38.96;102428.81;5047855;28;20087;-73
2022/05/27 11:54:47;;;;;;;14.50;2.93;;;;;;;19.76;38.37;102434.81;5054252;28;19917;-73
2022/05/27 11:57:20;;;;;;;13.48;2.95;;;;;;;19.94;36.04;102432.06;5057137;28;20259;-73
2022/05/27 12:00:06;;;;;;;10.35;2.88;;;;;;;20.25;36.63;102432.34;5056628;28;20079;-73
2022/05/27 12:02:50;;;;;;;12.57;2.30;;;;;;;20.70;33.39;102432.13;5055285;28;20052;-74
2022/05/27 12:05:22;;;;;;;9.55;2.47;;;;;;;21.05;33.87;102447.19;5057056;28;20029;-72
2022/05/27 12:07:58;;;;;;;12.05;2.50;;;;;;;20.18;34.96;102441.28;5056845;28;20064;-73
2022/05/27 12:10:31;;;;;;;10.63;2.72;;;;;;;19.64;36.04;102442.34;5056852;28;20457;-73
2022/05/27 12:13:09;;;;;;;11.98;2.80;;;;;;;19.61;35.60;102441.84;5057005;28;20025;-72